sensor_id;sensor_type;location;lat;lon;timestamp;pressure;altitude;pressure_sealevel;temperature;humidity
60019;BME280;45870;42.528;26.740;2024-02-04T00:00:02;99954.75;;;9.45;40.29
60019;BME280;45870;42.528;26.740;2024-02-04T00:02:28;99954.56;;;9.65;40.20
60019;BME280;45870;42.528;26.740;2024-02-04T00:04:54;99962.44;;;9.17;40.94
60019;BME280;45870;42.528;26.740;2024-02-04T00:07:19;99959.88;;;8.59;42.07
60019;BME280;45870;42.528;26.740;2024-02-04T00:09:45;99960.66;;;9.35;40.95
60019;BME280;45870;42.528;26.740;2024-02-04T00:12:11;99950.72;;;9.29;39.90
60019;BME280;45870;42.528;26.740;2024-02-04T00:14:36;99956.78;;;8.56;41.92
60019;BME280;45870;42.528;26.740;2024-02-04T00:17:02;99958.47;;;8.88;41.18
60019;BME280;45870;42.528;26.740;2024-02-04T00:19:27;99958.88;;;8.91;40.30
60019;BME280;45870;42.528;26.740;2024-02-04T00:21:53;99965.03;;;8.98;40.53
60019;BME280;45870;42.528;26.740;2024-02-04T00:24:18;99973.66;;;9.14;39.36
60019;BME280;45870;42.528;26.740;2024-02-04T00:26:44;99971.38;;;9.11;39.99
60019;BME280;45870;42.528;26.740;2024-02-04T00:29:09;99974.81;;;9.24;39.20
60019;BME280;45870;42.528;26.740;2024-02-04T00:31:35;99978.25;;;9.07;39.24
60019;BME280;45870;42.528;26.740;2024-02-04T00:34:00;99987.19;;;7.79;42.75
60019;BME280;45870;42.528;26.740;2024-02-04T00:36:26;99982.50;;;8.45;40.92
60019;BME280;45870;42.528;26.740;2024-02-04T00:38:51;99978.09;;;8.95;40.29
60019;BME280;45870;42.528;26.740;2024-02-04T00:41:17;99988.47;;;8.53;40.34
60019;BME280;45870;42.528;26.740;2024-02-04T00:43:42;99986.59;;;8.61;40.13
60019;BME280;45870;42.528;26.740;2024-02-04T00:46:08;99991.47;;;8.77;40.16
60019;BME280;45870;42.528;26.740;2024-02-04T00:48:35;99998.69;;;8.76;40.52
60019;BME280;45870;42.528;26.740;2024-02-04T00:51:01;99988.75;;;8.77;39.93
60019;BME280;45870;42.528;26.740;2024-02-04T00:53:26;100001.44;;;7.07;44.17
60019;BME280;45870;42.528;26.740;2024-02-04T00:55:58;99997.75;;;7.80;42.31
60019;BME280;45870;42.528;26.740;2024-02-04T00:58:24;99991.66;;;8.18;42.96
60019;BME280;45870;42.528;26.740;2024-02-04T01:00:49;99992.13;;;8.66;41.06
60019;BME280;45870;42.528;26.740;2024-02-04T01:03:14;99986.03;;;8.83;40.38
60019;BME280;45870;42.528;26.740;2024-02-04T01:05:40;99978.53;;;8.92;40.46
60019;BME280;45870;42.528;26.740;2024-02-04T01:08:05;99978.66;;;8.66;41.08
60019;BME280;45870;42.528;26.740;2024-02-04T01:10:31;99972.66;;;9.33;40.45
60019;BME280;45870;42.528;26.740;2024-02-04T01:12:56;99961.72;;;9.52;40.19
60019;BME280;45870;42.528;26.740;2024-02-04T01:15:22;99970.56;;;9.10;39.79
60019;BME280;45870;42.528;26.740;2024-02-04T01:17:47;99966.03;;;9.35;40.45
60019;BME280;45870;42.528;26.740;2024-02-04T01:20:13;99972.63;;;8.77;40.90
60019;BME280;45870;42.528;26.740;2024-02-04T01:22:38;99972.91;;;9.31;40.60
60019;BME280;45870;42.528;26.740;2024-02-04T01:25:03;99973.72;;;9.32;40.17
60019;BME280;45870;42.528;26.740;2024-02-04T01:27:29;99966.28;;;9.52;39.74
60019;BME280;45870;42.528;26.740;2024-02-04T01:29:55;99959.53;;;7.59;42.58
60019;BME280;45870;42.528;26.740;2024-02-04T01:32:21;99946.81;;;8.63;40.91
60019;BME280;45870;42.528;26.740;2024-02-04T01:34:47;99936.09;;;9.19;39.58
60019;BME280;45870;42.528;26.740;2024-02-04T01:37:12;99950.00;;;7.76;42.17
60019;BME280;45870;42.528;26.740;2024-02-04T01:39:38;99949.19;;;8.46;41.00
60019;BME280;45870;42.528;26.740;2024-02-04T01:42:03;99937.69;;;9.51;39.05
60019;BME280;45870;42.528;26.740;2024-02-04T01:44:29;99934.75;;;9.34;39.77
60019;BME280;45870;42.528;26.740;2024-02-04T01:46:54;99938.19;;;9.17;39.74
60019;BME280;45870;42.528;26.740;2024-02-04T01:49:20;99943.34;;;8.56;40.48
60019;BME280;45870;42.528;26.740;2024-02-04T01:51:45;99945.78;;;8.64;41.21
60019;BME280;45870;42.528;26.740;2024-02-04T01:54:11;99925.53;;;8.61;40.77
60019;BME280;45870;42.528;26.740;2024-02-04T01:56:36;99916.28;;;9.13;40.19
60019;BME280;45870;42.528;26.740;2024-02-04T01:59:01;99920.00;;;9.12;40.64
60019;BME280;45870;42.528;26.740;2024-02-04T02:01:27;99913.94;;;8.61;41.86
60019;BME280;45870;42.528;26.740;2024-02-04T02:03:52;99902.75;;;8.64;41.98
60019;BME280;45870;42.528;26.740;2024-02-04T02:06:18;99929.97;;;7.65;44.14
60019;BME280;45870;42.528;26.740;2024-02-04T02:08:44;99919.69;;;8.13;43.92
60019;BME280;45870;42.528;26.740;2024-02-04T02:11:11;99912.06;;;8.10;43.74
60019;BME280;45870;42.528;26.740;2024-02-04T02:13:38;99911.63;;;7.23;46.11
60019;BME280;45870;42.528;26.740;2024-02-04T02:16:07;99920.38;;;8.09;42.95
60019;BME280;45870;42.528;26.740;2024-02-04T02:18:38;99920.19;;;8.48;42.92
60019;BME280;45870;42.528;26.740;2024-02-04T02:23:35;99920.19;;;10.21;38.64
60019;BME280;45870;42.528;26.740;2024-02-04T02:26:02;99920.41;;;8.84;42.05
60019;BME280;45870;42.528;26.740;2024-02-04T02:28:29;99927.56;;;8.15;43.78
60019;BME280;45870;42.528;26.740;2024-02-04T02:30:54;99936.94;;;9.87;40.92
60019;BME280;45870;42.528;26.740;2024-02-04T02:33:20;99926.84;;;9.08;41.65
60019;BME280;45870;42.528;26.740;2024-02-04T02:35:46;99924.63;;;8.74;42.98
60019;BME280;45870;42.528;26.740;2024-02-04T02:38:26;99907.69;;;9.23;41.87
60019;BME280;45870;42.528;26.740;2024-02-04T02:40:59;99910.41;;;8.91;43.80
60019;BME280;45870;42.528;26.740;2024-02-04T02:43:24;99908.78;;;9.40;41.98
60019;BME280;45870;42.528;26.740;2024-02-04T02:45:51;99903.06;;;10.75;39.29
60019;BME280;45870;42.528;26.740;2024-02-04T02:48:17;99901.13;;;10.94;38.76
60019;BME280;45870;42.528;26.740;2024-02-04T02:50:42;99899.63;;;10.68;39.22
60019;BME280;45870;42.528;26.740;2024-02-04T02:53:07;99891.53;;;11.21;37.73
60019;BME280;45870;42.528;26.740;2024-02-04T02:55:33;99903.38;;;11.09;38.77
60019;BME280;45870;42.528;26.740;2024-02-04T02:57:58;99896.56;;;11.06;37.57
60019;BME280;45870;42.528;26.740;2024-02-04T03:00:24;99915.66;;;10.51;38.77
60019;BME280;45870;42.528;26.740;2024-02-04T03:02:49;99909.78;;;9.21;41.20
60019;BME280;45870;42.528;26.740;2024-02-04T03:05:15;99912.38;;;9.77;39.95
60019;BME280;45870;42.528;26.740;2024-02-04T03:07:41;99903.91;;;10.10;38.98
60019;BME280;45870;42.528;26.740;2024-02-04T03:10:06;99897.66;;;10.16;39.12
60019;BME280;45870;42.528;26.740;2024-02-04T03:12:31;99892.16;;;9.86;39.71
60019;BME280;45870;42.528;26.740;2024-02-04T03:14:57;99893.16;;;8.74;41.55
60019;BME280;45870;42.528;26.740;2024-02-04T03:17:22;99890.66;;;8.79;41.94
60019;BME280;45870;42.528;26.740;2024-02-04T03:19:48;99905.22;;;9.21;40.94
60019;BME280;45870;42.528;26.740;2024-02-04T03:22:14;99906.06;;;9.65;38.91
60019;BME280;45870;42.528;26.740;2024-02-04T03:24:40;99906.47;;;9.19;39.91
60019;BME280;45870;42.528;26.740;2024-02-04T03:27:05;99914.66;;;8.43;41.84
60019;BME280;45870;42.528;26.740;2024-02-04T03:29:31;99911.78;;;8.38;43.10
60019;BME280;45870;42.528;26.740;2024-02-04T03:31:56;99912.69;;;8.12;43.65
60019;BME280;45870;42.528;26.740;2024-02-04T03:34:21;99882.97;;;8.76;41.80
60019;BME280;45870;42.528;26.740;2024-02-04T03:36:47;99903.97;;;6.93;44.65
60019;BME280;45870;42.528;26.740;2024-02-04T03:39:12;99908.28;;;7.60;45.23
60019;BME280;45870;42.528;26.740;2024-02-04T03:41:38;99896.72;;;8.68;43.22
60019;BME280;45870;42.528;26.740;2024-02-04T03:44:04;99906.94;;;9.59;40.70
60019;BME280;45870;42.528;26.740;2024-02-04T03:46:29;99906.59;;;9.73;40.02
60019;BME280;45870;42.528;26.740;2024-02-04T03:48:55;99917.97;;;8.76;42.49
60019;BME280;45870;42.528;26.740;2024-02-04T03:51:20;99912.34;;;9.59;41.48
60019;BME280;45870;42.528;26.740;2024-02-04T03:53:46;99903.63;;;10.18;39.34
60019;BME280;45870;42.528;26.740;2024-02-04T03:56:12;99902.69;;;10.42;38.59
60019;BME280;45870;42.528;26.740;2024-02-04T03:58:37;99898.75;;;9.90;40.30
60019;BME280;45870;42.528;26.740;2024-02-04T04:01:03;99912.84;;;9.92;41.26
60019;BME280;45870;42.528;26.740;2024-02-04T04:03:28;99907.81;;;9.34;42.43
60019;BME280;45870;42.528;26.740;2024-02-04T04:05:54;99914.19;;;10.19;40.25
60019;BME280;45870;42.528;26.740;2024-02-04T04:08:19;99908.94;;;10.06;40.62
60019;BME280;45870;42.528;26.740;2024-02-04T04:10:45;99906.06;;;9.65;42.05
60019;BME280;45870;42.528;26.740;2024-02-04T04:13:10;99902.50;;;10.25;40.95
60019;BME280;45870;42.528;26.740;2024-02-04T04:15:36;99886.63;;;9.81;40.47
60019;BME280;45870;42.528;26.740;2024-02-04T04:18:01;99888.88;;;10.02;40.84
60019;BME280;45870;42.528;26.740;2024-02-04T04:20:26;99891.56;;;10.02;41.50
60019;BME280;45870;42.528;26.740;2024-02-04T04:22:52;99872.69;;;10.50;39.95
60019;BME280;45870;42.528;26.740;2024-02-04T04:25:17;99882.66;;;10.20;40.65
60019;BME280;45870;42.528;26.740;2024-02-04T04:27:43;99877.00;;;8.74;43.77
60019;BME280;45870;42.528;26.740;2024-02-04T04:30:09;99873.06;;;9.69;41.39
60019;BME280;45870;42.528;26.740;2024-02-04T04:32:34;99875.94;;;10.40;40.42
60019;BME280;45870;42.528;26.740;2024-02-04T04:35:00;99880.59;;;11.05;38.82
60019;BME280;45870;42.528;26.740;2024-02-04T04:37:25;99872.06;;;10.36;39.00
60019;BME280;45870;42.528;26.740;2024-02-04T04:39:51;99885.41;;;9.59;41.01
60019;BME280;45870;42.528;26.740;2024-02-04T04:42:16;99886.31;;;10.25;41.26
60019;BME280;45870;42.528;26.740;2024-02-04T04:44:41;99880.59;;;10.63;40.69
60019;BME280;45870;42.528;26.740;2024-02-04T04:47:07;99884.97;;;11.17;39.60
60019;BME280;45870;42.528;26.740;2024-02-04T04:49:32;99886.38;;;11.20;38.31
60019;BME280;45870;42.528;26.740;2024-02-04T04:51:57;99896.34;;;10.36;39.31
60019;BME280;45870;42.528;26.740;2024-02-04T04:54:23;99899.50;;;9.11;43.28
60019;BME280;45870;42.528;26.740;2024-02-04T04:56:48;99905.72;;;8.49;45.09
60019;BME280;45870;42.528;26.740;2024-02-04T04:59:14;99900.31;;;10.34;41.53
60019;BME280;45870;42.528;26.740;2024-02-04T05:01:46;99908.22;;;11.18;39.24
60019;BME280;45870;42.528;26.740;2024-02-04T05:04:11;99906.72;;;11.57;37.32
60019;BME280;45870;42.528;26.740;2024-02-04T05:06:37;99901.88;;;10.71;38.63
60019;BME280;45870;42.528;26.740;2024-02-04T05:09:02;99906.81;;;10.74;39.63
60019;BME280;45870;42.528;26.740;2024-02-04T05:11:28;99912.44;;;11.14;39.10
60019;BME280;45870;42.528;26.740;2024-02-04T05:13:53;99919.22;;;10.34;39.94
60019;BME280;45870;42.528;26.740;2024-02-04T05:16:19;99913.31;;;10.55;40.13
60019;BME280;45870;42.528;26.740;2024-02-04T05:18:45;99902.72;;;11.25;38.89
60019;BME280;45870;42.528;26.740;2024-02-04T05:21:10;99906.16;;;11.78;37.83
60019;BME280;45870;42.528;26.740;2024-02-04T05:23:36;99904.13;;;11.50;39.08
60019;BME280;45870;42.528;26.740;2024-02-04T05:26:04;99907.44;;;11.52;38.91
60019;BME280;45870;42.528;26.740;2024-02-04T05:28:30;99907.78;;;11.56;39.01
60019;BME280;45870;42.528;26.740;2024-02-04T05:30:55;99918.34;;;11.58;38.96
60019;BME280;45870;42.528;26.740;2024-02-04T05:33:21;99924.56;;;11.58;39.30
60019;BME280;45870;42.528;26.740;2024-02-04T05:35:46;99923.66;;;11.76;38.36
60019;BME280;45870;42.528;26.740;2024-02-04T05:38:11;99938.56;;;11.55;39.69
60019;BME280;45870;42.528;26.740;2024-02-04T05:40:37;99935.66;;;11.03;40.35
60019;BME280;45870;42.528;26.740;2024-02-04T05:43:02;99948.44;;;10.67;40.79
60019;BME280;45870;42.528;26.740;2024-02-04T05:45:33;99953.72;;;11.33;40.21
60019;BME280;45870;42.528;26.740;2024-02-04T05:47:58;99938.66;;;12.18;38.25
60019;BME280;45870;42.528;26.740;2024-02-04T05:50:24;99946.34;;;12.10;38.37
60019;BME280;45870;42.528;26.740;2024-02-04T05:52:49;99952.47;;;12.05;38.66
60019;BME280;45870;42.528;26.740;2024-02-04T05:55:14;99952.66;;;12.27;38.34
60019;BME280;45870;42.528;26.740;2024-02-04T05:57:40;99959.22;;;10.37;41.36
60019;BME280;45870;42.528;26.740;2024-02-04T06:00:06;99743.66;;;10.17;40.13
60019;BME280;45870;42.528;26.740;2024-02-04T06:02:33;99956.03;;;11.18;41.44
60019;BME280;45870;42.528;26.740;2024-02-04T06:04:58;99950.09;;;12.20;39.11
60019;BME280;45870;42.528;26.740;2024-02-04T06:07:23;99938.09;;;11.46;39.51
60019;BME280;45870;42.528;26.740;2024-02-04T06:09:49;99934.44;;;12.11;39.08
60019;BME280;45870;42.528;26.740;2024-02-04T06:12:14;99938.59;;;12.01;39.44
60019;BME280;45870;42.528;26.740;2024-02-04T06:14:39;99944.72;;;12.48;38.58
60019;BME280;45870;42.528;26.740;2024-02-04T06:17:05;99943.72;;;12.66;38.44
60019;BME280;45870;42.528;26.740;2024-02-04T06:19:33;99927.78;;;12.98;37.95
60019;BME280;45870;42.528;26.740;2024-02-04T06:21:59;99922.25;;;12.48;39.00
60019;BME280;45870;42.528;26.740;2024-02-04T06:24:24;99914.13;;;13.21;38.05
60019;BME280;45870;42.528;26.740;2024-02-04T06:26:50;99926.47;;;12.04;39.79
60019;BME280;45870;42.528;26.740;2024-02-04T06:29:15;99908.44;;;12.78;38.52
60019;BME280;45870;42.528;26.740;2024-02-04T06:31:43;99898.00;;;12.13;39.53
60019;BME280;45870;42.528;26.740;2024-02-04T06:34:09;99895.56;;;13.13;38.43
60019;BME280;45870;42.528;26.740;2024-02-04T06:36:34;99895.28;;;13.48;37.45
60019;BME280;45870;42.528;26.740;2024-02-04T06:39:00;99901.78;;;14.02;36.54
60019;BME280;45870;42.528;26.740;2024-02-04T06:41:25;99916.63;;;12.94;38.33
60019;BME280;45870;42.528;26.740;2024-02-04T06:43:50;99917.38;;;13.07;37.72
60019;BME280;45870;42.528;26.740;2024-02-04T06:46:27;99925.47;;;12.62;38.56
60019;BME280;45870;42.528;26.740;2024-02-04T06:48:53;99919.31;;;13.39;38.19
60019;BME280;45870;42.528;26.740;2024-02-04T06:51:19;99920.66;;;14.79;35.95
60019;BME280;45870;42.528;26.740;2024-02-04T06:53:45;99924.06;;;14.42;36.65
60019;BME280;45870;42.528;26.740;2024-02-04T06:56:10;99937.25;;;14.56;36.93
60019;BME280;45870;42.528;26.740;2024-02-04T06:58:38;99933.75;;;14.17;36.89
60019;BME280;45870;42.528;26.740;2024-02-04T07:01:04;99934.91;;;13.49;38.38
60019;BME280;45870;42.528;26.740;2024-02-04T07:03:30;99930.91;;;14.28;36.63
60019;BME280;45870;42.528;26.740;2024-02-04T07:05:55;99936.69;;;14.15;37.08
60019;BME280;45870;42.528;26.740;2024-02-04T07:08:21;99928.69;;;15.22;35.37
60019;BME280;45870;42.528;26.740;2024-02-04T07:10:46;99927.25;;;17.03;32.24
60019;BME280;45870;42.528;26.740;2024-02-04T07:13:12;99930.00;;;17.48;31.53
60019;BME280;45870;42.528;26.740;2024-02-04T07:15:37;99925.88;;;17.91;30.71
60019;BME280;45870;42.528;26.740;2024-02-04T07:18:03;99937.91;;;16.37;32.38
60019;BME280;45870;42.528;26.740;2024-02-04T07:20:28;99939.22;;;14.22;35.91
60019;BME280;45870;42.528;26.740;2024-02-04T07:22:54;99952.56;;;12.62;40.04
60019;BME280;45870;42.528;26.740;2024-02-04T07:25:19;99958.22;;;12.88;40.04
60019;BME280;45870;42.528;26.740;2024-02-04T07:27:45;99956.25;;;12.44;40.87
60019;BME280;45870;42.528;26.740;2024-02-04T07:30:11;99954.81;;;12.53;40.67
60019;BME280;45870;42.528;26.740;2024-02-04T07:32:36;99960.34;;;11.83;41.63
60019;BME280;45870;42.528;26.740;2024-02-04T07:35:02;99950.03;;;13.00;39.99
60019;BME280;45870;42.528;26.740;2024-02-04T07:37:27;99956.97;;;14.94;36.19
60019;BME280;45870;42.528;26.740;2024-02-04T07:39:53;99957.66;;;15.65;34.59
60019;BME280;45870;42.528;26.740;2024-02-04T07:42:18;99950.72;;;15.53;34.65
60019;BME280;45870;42.528;26.740;2024-02-04T07:44:44;99952.97;;;16.49;33.48
60019;BME280;45870;42.528;26.740;2024-02-04T07:47:09;99952.09;;;17.26;31.84
60019;BME280;45870;42.528;26.740;2024-02-04T07:49:34;99951.00;;;17.42;31.91
60019;BME280;45870;42.528;26.740;2024-02-04T07:52:00;99953.22;;;17.61;31.09
60019;BME280;45870;42.528;26.740;2024-02-04T07:54:25;99955.19;;;16.58;32.74
60019;BME280;45870;42.528;26.740;2024-02-04T07:56:51;99960.00;;;15.57;34.66
60019;BME280;45870;42.528;26.740;2024-02-04T07:59:16;99955.16;;;16.01;34.89
60019;BME280;45870;42.528;26.740;2024-02-04T08:01:42;99953.00;;;15.34;36.45
60019;BME280;45870;42.528;26.740;2024-02-04T08:04:07;99945.91;;;15.33;35.88
60019;BME280;45870;42.528;26.740;2024-02-04T08:06:36;99945.81;;;15.49;35.51
60019;BME280;45870;42.528;26.740;2024-02-04T08:09:02;99945.56;;;17.27;32.87
60019;BME280;45870;42.528;26.740;2024-02-04T08:11:28;99944.69;;;17.07;33.33
60019;BME280;45870;42.528;26.740;2024-02-04T08:13:53;99942.75;;;16.87;33.63
60019;BME280;45870;42.528;26.740;2024-02-04T08:16:19;99932.50;;;16.47;34.50
60019;BME280;45870;42.528;26.740;2024-02-04T08:18:45;99943.03;;;16.90;34.52
60019;BME280;45870;42.528;26.740;2024-02-04T08:21:11;99942.41;;;16.68;34.64
60019;BME280;45870;42.528;26.740;2024-02-04T08:23:36;99945.47;;;16.87;33.88
60019;BME280;45870;42.528;26.740;2024-02-04T08:26:02;99928.66;;;17.61;33.35
60019;BME280;45870;42.528;26.740;2024-02-04T08:28:27;99932.63;;;18.88;31.73
60019;BME280;45870;42.528;26.740;2024-02-04T08:30:53;99935.16;;;18.74;31.09
60019;BME280;45870;42.528;26.740;2024-02-04T08:33:18;99934.41;;;19.08;31.06
60019;BME280;45870;42.528;26.740;2024-02-04T08:35:44;99928.94;;;19.08;31.06
60019;BME280;45870;42.528;26.740;2024-02-04T08:38:09;99940.78;;;18.98;31.58
60019;BME280;45870;42.528;26.740;2024-02-04T08:40:36;99942.03;;;19.83;30.36
60019;BME280;45870;42.528;26.740;2024-02-04T08:43:01;99937.91;;;17.44;33.26
60019;BME280;45870;42.528;26.740;2024-02-04T08:45:27;99946.78;;;16.12;36.62
60019;BME280;45870;42.528;26.740;2024-02-04T08:47:52;99936.25;;;15.79;38.00
60019;BME280;45870;42.528;26.740;2024-02-04T08:50:17;99938.41;;;14.86;39.71
60019;BME280;45870;42.528;26.740;2024-02-04T08:52:43;99940.59;;;14.63;40.26
60019;BME280;45870;42.528;26.740;2024-02-04T08:55:08;99931.63;;;14.40;40.96
60019;BME280;45870;42.528;26.740;2024-02-04T08:57:34;99935.75;;;16.39;36.49
60019;BME280;45870;42.528;26.740;2024-02-04T08:59:59;99932.44;;;17.14;35.41
60019;BME280;45870;42.528;26.740;2024-02-04T09:02:25;99945.25;;;17.29;35.58
60019;BME280;45870;42.528;26.740;2024-02-04T09:04:50;99945.00;;;17.56;34.96
60019;BME280;45870;42.528;26.740;2024-02-04T09:07:15;99936.06;;;18.60;33.56
60019;BME280;45870;42.528;26.740;2024-02-04T09:09:41;99945.53;;;17.22;36.40
60019;BME280;45870;42.528;26.740;2024-02-04T09:12:07;99946.63;;;17.06;37.25
60019;BME280;45870;42.528;26.740;2024-02-04T09:14:33;99946.66;;;14.96;40.18
60019;BME280;45870;42.528;26.740;2024-02-04T09:16:58;99944.28;;;15.64;39.53
60019;BME280;45870;42.528;26.740;2024-02-04T09:19:24;99934.81;;;15.08;40.41
60019;BME280;45870;42.528;26.740;2024-02-04T09:21:49;99928.63;;;16.28;38.48
60019;BME280;45870;42.528;26.740;2024-02-04T09:24:15;99926.06;;;15.32;40.25
60019;BME280;45870;42.528;26.740;2024-02-04T09:26:40;99925.47;;;15.62;40.75
60019;BME280;45870;42.528;26.740;2024-02-04T09:29:06;99923.22;;;15.86;39.57
60019;BME280;45870;42.528;26.740;2024-02-04T09:31:31;99922.47;;;14.95;42.25
60019;BME280;45870;42.528;26.740;2024-02-04T09:33:56;99905.44;;;15.41;41.80
60019;BME280;45870;42.528;26.740;2024-02-04T09:36:23;99911.06;;;14.71;42.76
60019;BME280;45870;42.528;26.740;2024-02-04T09:38:48;99904.53;;;14.99;42.96
60019;BME280;45870;42.528;26.740;2024-02-04T09:41:14;99892.56;;;14.03;44.73
60019;BME280;45870;42.528;26.740;2024-02-04T09:43:39;99897.03;;;15.11;43.69
60019;BME280;45870;42.528;26.740;2024-02-04T09:46:05;99899.16;;;15.36;42.69
60019;BME280;45870;42.528;26.740;2024-02-04T09:48:31;99894.25;;;15.38;42.68
60019;BME280;45870;42.528;26.740;2024-02-04T09:50:57;99888.78;;;14.47;44.07
60019;BME280;45870;42.528;26.740;2024-02-04T09:53:26;99877.16;;;15.37;42.18
60019;BME280;45870;42.528;26.740;2024-02-04T09:55:56;99876.72;;;15.97;41.08
60019;BME280;45870;42.528;26.740;2024-02-04T09:58:22;99861.75;;;15.95;41.45
60019;BME280;45870;42.528;26.740;2024-02-04T10:00:48;99851.72;;;16.06;41.87
60019;BME280;45870;42.528;26.740;2024-02-04T10:03:16;99849.38;;;16.34;40.80
60019;BME280;45870;42.528;26.740;2024-02-04T10:05:41;99852.41;;;15.39;42.73
60019;BME280;45870;42.528;26.740;2024-02-04T10:08:06;99854.34;;;16.53;40.92
60019;BME280;45870;42.528;26.740;2024-02-04T10:10:32;99845.69;;;16.91;39.94
60019;BME280;45870;42.528;26.740;2024-02-04T10:12:57;99854.56;;;16.36;41.47
60019;BME280;45870;42.528;26.740;2024-02-04T10:15:23;99851.41;;;16.79;40.62
60019;BME280;45870;42.528;26.740;2024-02-04T10:17:48;99864.50;;;16.92;40.26
60019;BME280;45870;42.528;26.740;2024-02-04T10:20:14;99867.53;;;17.62;38.76
60019;BME280;45870;42.528;26.740;2024-02-04T10:22:40;99870.22;;;15.57;42.02
60019;BME280;45870;42.528;26.740;2024-02-04T10:25:06;99875.13;;;16.94;40.34
60019;BME280;45870;42.528;26.740;2024-02-04T10:27:32;99871.59;;;17.59;38.86
60019;BME280;45870;42.528;26.740;2024-02-04T10:29:58;99873.06;;;16.34;40.30
60019;BME280;45870;42.528;26.740;2024-02-04T10:32:23;99873.66;;;16.46;40.12
60019;BME280;45870;42.528;26.740;2024-02-04T10:34:49;99873.81;;;17.17;39.68
60019;BME280;45870;42.528;26.740;2024-02-04T10:37:14;99863.44;;;16.98;39.99
60019;BME280;45870;42.528;26.740;2024-02-04T10:39:39;99863.66;;;16.72;40.12
60019;BME280;45870;42.528;26.740;2024-02-04T10:42:05;99860.16;;;17.02;38.80
60019;BME280;45870;42.528;26.740;2024-02-04T10:44:35;99872.56;;;16.47;40.65
60019;BME280;45870;42.528;26.740;2024-02-04T10:47:05;99876.09;;;16.47;40.36
60019;BME280;45870;42.528;26.740;2024-02-04T10:49:32;99886.47;;;16.45;40.68
60019;BME280;45870;42.528;26.740;2024-02-04T10:51:59;99880.22;;;16.50;40.32
60019;BME280;45870;42.528;26.740;2024-02-04T10:54:25;99882.19;;;16.60;40.17
60019;BME280;45870;42.528;26.740;2024-02-04T10:56:56;99874.31;;;16.93;39.08
60019;BME280;45870;42.528;26.740;2024-02-04T10:59:23;99874.75;;;16.45;39.93
60019;BME280;45870;42.528;26.740;2024-02-04T11:01:50;99877.28;;;16.67;39.17
60019;BME280;45870;42.528;26.740;2024-02-04T11:04:17;99857.22;;;16.21;40.16
60019;BME280;45870;42.528;26.740;2024-02-04T11:06:44;99859.72;;;16.32;40.79
60019;BME280;45870;42.528;26.740;2024-02-04T11:09:09;99857.50;;;16.29;41.22
60019;BME280;45870;42.528;26.740;2024-02-04T11:11:36;99858.13;;;16.52;40.42
60019;BME280;45870;42.528;26.740;2024-02-04T11:14:02;99854.34;;;16.58;40.38
60019;BME280;45870;42.528;26.740;2024-02-04T11:26:46;99839.50;;;16.13;41.38
60019;BME280;45870;42.528;26.740;2024-02-04T11:29:11;99843.03;;;16.19;41.29
60019;BME280;45870;42.528;26.740;2024-02-04T11:31:38;99837.50;;;17.21;39.30
60019;BME280;45870;42.528;26.740;2024-02-04T11:34:04;99833.94;;;16.60;39.90
60019;BME280;45870;42.528;26.740;2024-02-04T11:36:30;99834.22;;;17.39;38.16
60019;BME280;45870;42.528;26.740;2024-02-04T11:38:55;99843.66;;;16.41;40.46
60019;BME280;45870;42.528;26.740;2024-02-04T11:41:24;99829.88;;;17.23;39.14
60019;BME280;45870;42.528;26.740;2024-02-04T11:43:54;99827.44;;;17.27;38.58
60019;BME280;45870;42.528;26.740;2024-02-04T11:46:20;99834.34;;;17.98;37.09
60019;BME280;45870;42.528;26.740;2024-02-04T11:48:52;99833.66;;;16.57;39.34
60019;BME280;45870;42.528;26.740;2024-02-04T11:51:24;99832.06;;;16.81;38.92
60019;BME280;45870;42.528;26.740;2024-02-04T11:53:50;99828.22;;;17.37;38.30
60019;BME280;45870;42.528;26.740;2024-02-04T11:56:16;99831.53;;;16.99;39.36
60019;BME280;45870;42.528;26.740;2024-02-04T11:58:42;99832.56;;;17.38;38.30
60019;BME280;45870;42.528;26.740;2024-02-04T12:01:09;99837.19;;;18.86;36.54
60019;BME280;45870;42.528;26.740;2024-02-04T12:03:35;99832.97;;;18.06;37.30
60019;BME280;45870;42.528;26.740;2024-02-04T12:06:02;99828.69;;;17.90;38.16
60019;BME280;45870;42.528;26.740;2024-02-04T12:08:28;99639.88;;;15.82;39.86
60019;BME280;45870;42.528;26.740;2024-02-04T12:10:54;99820.59;;;16.69;38.98
60019;BME280;45870;42.528;26.740;2024-02-04T12:13:19;99806.94;;;17.24;38.08
60019;BME280;45870;42.528;26.740;2024-02-04T12:15:47;99813.19;;;16.49;38.97
60019;BME280;45870;42.528;26.740;2024-02-04T12:18:12;99812.06;;;16.35;39.39
60019;BME280;45870;42.528;26.740;2024-02-04T12:20:45;99806.16;;;16.63;39.50
60019;BME280;45870;42.528;26.740;2024-02-04T12:23:12;99800.97;;;16.87;39.13
60019;BME280;45870;42.528;26.740;2024-02-04T12:25:37;99804.78;;;17.26;38.45
60019;BME280;45870;42.528;26.740;2024-02-04T12:28:03;99796.34;;;16.87;39.74
60019;BME280;45870;42.528;26.740;2024-02-04T12:30:29;99795.72;;;17.61;37.86
60019;BME280;45870;42.528;26.740;2024-02-04T12:32:58;99793.34;;;16.89;39.52
60019;BME280;45870;42.528;26.740;2024-02-04T12:35:24;99791.22;;;18.01;37.53
60019;BME280;45870;42.528;26.740;2024-02-04T12:37:53;99788.88;;;17.64;38.07
60019;BME280;45870;42.528;26.740;2024-02-04T12:42:54;99787.03;;;18.13;37.01
60019;BME280;45870;42.528;26.740;2024-02-04T12:45:20;99784.88;;;18.15;36.97
60019;BME280;45870;42.528;26.740;2024-02-04T12:47:48;99786.75;;;17.40;38.10
60019;BME280;45870;42.528;26.740;2024-02-04T12:50:14;99776.13;;;17.34;38.45
60019;BME280;45870;42.528;26.740;2024-02-04T12:52:39;99777.81;;;18.04;36.88
60019;BME280;45870;42.528;26.740;2024-02-04T12:55:05;99776.31;;;17.68;37.62
60019;BME280;45870;42.528;26.740;2024-02-04T12:57:31;99775.63;;;17.02;39.25
60019;BME280;45870;42.528;26.740;2024-02-04T13:00:06;99771.97;;;18.21;36.25